createdAt,value
2023-03-17T00:01:51.691Z,77.0
2023-03-17T00:06:57.723Z,77.0
2023-03-17T00:12:02.916Z,77.0
2023-03-17T00:17:09.126Z,77.0
2023-03-17T00:22:15.332Z,77.0
2023-03-17T00:27:21.541Z,77.0
2023-03-17T00:32:27.797Z,76.5
2023-03-17T00:37:33.971Z,76.5
2023-03-17T00:42:40.274Z,76.5
2023-03-17T00:47:46.371Z,76.5
2023-03-17T00:52:52.579Z,76.5
2023-03-17T00:57:58.793Z,76.5
2023-03-17T01:03:04.992Z,76.5
2023-03-17T01:08:11.199Z,76.5
2023-03-17T01:13:17.407Z,76.5
2023-03-17T01:18:23.733Z,76.5
2023-03-17T01:23:29.818Z,76.5
2023-03-17T01:28:36.036Z,76.5
2023-03-17T01:33:42.246Z,76.5
2023-03-17T01:38:48.446Z,76.5
2023-03-17T01:43:54.670Z,76.5
2023-03-17T01:49:00.866Z,77.0
2023-03-17T01:54:07.070Z,76.5
2023-03-17T01:59:12.319Z,76.5
2023-03-17T02:04:18.595Z,76.5
2023-03-17T02:09:24.723Z,77.0
2023-03-17T02:14:29.967Z,76.5
2023-03-17T02:19:36.163Z,76.5
2023-03-17T02:24:42.376Z,76.5
2023-03-17T02:29:48.589Z,77.0
2023-03-17T02:34:54.815Z,77.0
2023-03-17T02:40:01.008Z,77.0
2023-03-17T02:45:07.212Z,77.0
2023-03-17T02:50:13.417Z,77.0
2023-03-17T02:55:19.633Z,77.0
2023-03-17T03:00:25.835Z,77.0
2023-03-17T03:05:32.052Z,77.0
2023-03-17T03:10:38.246Z,77.0
2023-03-17T03:15:44.523Z,77.0
2023-03-17T03:20:50.671Z,77.0
2023-03-17T03:25:56.883Z,77.5
2023-03-17T03:31:03.121Z,77.5
2023-03-17T03:36:09.309Z,77.5
2023-03-17T03:41:15.498Z,77.5
2023-03-17T03:46:21.720Z,77.5
2023-03-17T03:51:27.907Z,77.5
2023-03-17T03:56:34.109Z,77.5
2023-03-17T04:01:39.347Z,77.5
2023-03-17T04:06:45.565Z,77.5
2023-03-17T04:11:50.811Z,77.5
2023-03-17T04:16:56.997Z,77.5
2023-03-17T04:22:03.224Z,77.5
2023-03-17T04:27:09.416Z,77.5
2023-03-17T04:32:15.626Z,78.0
2023-03-17T04:37:21.829Z,78.0
2023-03-17T04:42:28.044Z,78.0
2023-03-17T04:47:34.249Z,78.0
2023-03-17T04:52:40.456Z,78.0
2023-03-17T04:57:46.668Z,78.0
2023-03-17T05:02:52.883Z,78.0
2023-03-17T05:07:59.084Z,78.5
2023-03-17T05:13:05.286Z,78.5
2023-03-17T05:18:11.511Z,78.5
2023-03-17T05:23:17.719Z,78.5
2023-03-17T05:28:23.915Z,78.5
2023-03-17T05:33:30.120Z,78.5
2023-03-17T05:38:36.318Z,78.5
2023-03-17T05:43:42.532Z,78.5
2023-03-17T05:48:48.736Z,79.0
2023-03-17T05:53:54.944Z,79.0
2023-03-17T05:59:00.189Z,79.0
2023-03-17T06:04:06.390Z,79.0
2023-03-17T06:09:12.598Z,79.0
2023-03-17T06:14:17.828Z,79.0
2023-03-17T06:19:24.094Z,79.0
2023-03-17T06:24:30.255Z,79.5
2023-03-17T06:29:36.456Z,79.5
2023-03-17T06:34:42.686Z,79.5
2023-03-17T06:39:48.881Z,79.5
2023-03-17T06:44:55.083Z,80.0
2023-03-17T06:50:01.435Z,80.0
2023-03-17T06:55:07.493Z,80.5
2023-03-17T07:00:13.700Z,80.5
2023-03-17T07:05:19.909Z,80.5
2023-03-17T07:10:26.113Z,80.5
2023-03-17T07:15:33.109Z,80.5
2023-03-17T07:20:38.533Z,81.0
2023-03-17T07:25:44.739Z,81.0
2023-03-17T07:30:50.951Z,80.5
2023-03-17T07:35:57.267Z,80.5
2023-03-17T07:41:03.366Z,80.5
2023-03-17T07:46:09.627Z,80.5
2023-03-17T07:51:15.777Z,80.5
2023-03-17T07:56:21.992Z,80.5
2023-03-17T08:01:27.277Z,80.5
2023-03-17T08:06:33.502Z,80.0
2023-03-17T08:11:39.705Z,79.5
2023-03-17T08:16:45.957Z,79.5
2023-03-17T08:21:52.054Z,79.5
2023-03-17T08:26:59.810Z,79.5
2023-03-17T08:32:04.494Z,79.0
2023-03-17T08:37:11.573Z,79.0
2023-03-17T08:42:16.933Z,79.0
2023-03-17T08:47:23.103Z,79.0
2023-03-17T08:52:29.379Z,78.5
2023-03-17T08:57:35.511Z,78.5
2023-03-17T09:02:41.784Z,78.5
2023-03-17T09:07:47.997Z,78.5
2023-03-17T09:12:54.144Z,78.0
2023-03-17T09:18:00.345Z,78.0
2023-03-17T09:23:06.564Z,78.0
2023-03-17T09:28:11.821Z,78.0
2023-03-17T09:33:18.028Z,77.5
2023-03-17T09:38:24.207Z,77.5
2023-03-17T09:43:30.412Z,77.0
2023-03-17T09:48:35.657Z,77.5
2023-03-17T09:53:41.868Z,77.0
2023-03-17T09:58:48.992Z,77.0
2023-03-17T10:03:53.338Z,76.5
2023-03-17T10:08:59.553Z,75.5
2023-03-17T10:14:05.741Z,75.5
2023-03-17T10:19:11.965Z,75.5
2023-03-17T10:24:18.334Z,75.5
2023-03-17T10:29:24.374Z,75.0
2023-03-17T10:34:30.590Z,74.5
2023-03-17T10:39:36.806Z,74.5
2023-03-17T10:44:43.002Z,74.0
2023-03-17T10:49:49.211Z,74.0
2023-03-17T10:54:55.442Z,74.0
2023-03-17T11:00:01.641Z,73.0
2023-03-17T11:05:07.835Z,73.0
2023-03-17T11:10:14.051Z,72.5
2023-03-17T11:15:20.377Z,72.0
2023-03-17T11:20:26.488Z,72.0
2023-03-17T11:25:32.671Z,71.5
2023-03-17T11:30:38.886Z,71.0
2023-03-17T11:35:45.129Z,70.5
2023-03-17T11:40:51.302Z,70.0
2023-03-17T11:45:56.573Z,70.0
2023-03-17T11:51:02.744Z,69.5
2023-03-17T11:56:08.956Z,69.5
2023-03-17T12:01:14.178Z,69.5
2023-03-17T12:06:20.391Z,69.0
2023-03-17T12:11:26.598Z,69.0
2023-03-17T12:16:32.808Z,68.5
2023-03-17T12:21:39.019Z,68.5
2023-03-17T12:26:45.228Z,68.0
2023-03-17T12:31:51.437Z,68.5
2023-03-17T12:36:57.647Z,68.0
2023-03-17T12:42:03.850Z,67.5
2023-03-17T12:47:10.052Z,67.5
2023-03-17T12:52:16.266Z,67.5
2023-03-17T12:57:22.489Z,67.5
2023-03-17T13:02:28.685Z,67.5
2023-03-17T13:07:34.892Z,67.0
2023-03-17T13:12:41.094Z,66.5
2023-03-17T13:17:47.311Z,66.5
2023-03-17T13:22:53.516Z,66.5
2023-03-17T13:27:59.720Z,66.0
2023-03-17T13:33:06.022Z,66.0
2023-03-17T13:38:12.145Z,65.5
2023-03-17T13:43:18.661Z,65.5
2023-03-17T13:48:23.590Z,65.0
2023-03-17T13:53:29.833Z,65.0
2023-03-17T13:58:35.043Z,65.0
2023-03-17T14:03:41.376Z,65.0
2023-03-17T14:08:47.464Z,64.0
2023-03-17T14:13:53.684Z,64.0
2023-03-17T14:18:59.872Z,64.0
2023-03-17T14:24:06.092Z,64.0
2023-03-17T14:29:12.287Z,64.5
2023-03-17T14:34:18.503Z,64.5
2023-03-17T14:39:24.719Z,64.0
2023-03-17T14:44:30.923Z,64.0
2023-03-17T14:49:37.126Z,64.0
2023-03-17T14:54:43.334Z,64.0
2023-03-17T14:59:49.548Z,64.0
2023-03-17T15:04:55.757Z,64.0
2023-03-17T15:10:02.014Z,64.0
2023-03-17T15:15:08.176Z,64.5
2023-03-17T15:20:14.377Z,64.5
2023-03-17T15:25:20.581Z,65.0
2023-03-17T15:30:29.570Z,65.0
2023-03-17T15:35:33.021Z,65.0
2023-03-17T15:40:39.211Z,64.5
2023-03-17T15:45:44.509Z,65.0
2023-03-17T15:50:50.664Z,65.0
2023-03-17T15:55:56.878Z,65.0
2023-03-17T16:01:03.099Z,65.0
2023-03-17T16:06:09.285Z,65.0
2023-03-17T16:11:15.493Z,65.5
2023-03-17T16:16:21.821Z,66.0
2023-03-17T16:21:27.898Z,66.0
2023-03-17T16:26:34.126Z,66.0
2023-03-17T16:31:40.321Z,66.5
2023-03-17T16:36:46.528Z,66.5
2023-03-17T16:41:52.742Z,66.5
2023-03-17T16:46:59.075Z,67.0
2023-03-17T16:52:05.161Z,67.0
2023-03-17T16:57:11.363Z,67.5
2023-03-17T17:02:17.575Z,67.5
2023-03-17T17:07:23.789Z,67.5
2023-03-17T17:12:30.002Z,68.0
2023-03-17T17:17:36.204Z,68.0
2023-03-17T17:22:42.438Z,68.5
2023-03-17T17:27:48.624Z,68.5
2023-03-17T17:32:53.917Z,69.0
2023-03-17T17:38:00.068Z,69.5
2023-03-17T17:43:05.329Z,69.5
2023-03-17T17:48:11.522Z,70.0
2023-03-17T17:53:16.760Z,69.5
2023-03-17T17:58:23.048Z,69.0
2023-03-17T18:03:31.626Z,68.0
2023-03-17T18:08:35.372Z,67.5
2023-03-17T18:13:41.581Z,67.0
2023-03-17T18:18:47.808Z,66.5
2023-03-17T18:23:53.990Z,66.0
2023-03-17T18:29:00.201Z,66.0
2023-03-17T18:34:06.414Z,66.0
2023-03-17T18:39:12.653Z,66.0
2023-03-17T18:44:18.837Z,66.0
2023-03-17T18:49:25.046Z,66.0
2023-03-17T18:54:31.242Z,66.0
2023-03-17T18:59:37.451Z,66.0
2023-03-17T19:04:43.656Z,66.0
2023-03-17T19:09:49.868Z,66.0
2023-03-17T19:14:56.074Z,66.0
2023-03-17T19:20:02.278Z,66.0
2023-03-17T19:25:08.488Z,66.5
2023-03-17T19:30:14.703Z,66.5
2023-03-17T19:35:20.908Z,66.5
2023-03-17T19:40:26.150Z,67.5
2023-03-17T19:45:32.360Z,67.5
2023-03-17T19:50:38.570Z,68.0
2023-03-17T19:55:44.873Z,68.5
2023-03-17T20:00:50.972Z,69.0
2023-03-17T20:05:57.188Z,69.5
2023-03-17T20:11:03.390Z,69.5
2023-03-17T20:16:09.648Z,70.0
2023-03-17T20:21:15.806Z,70.5
2023-03-17T20:26:22.022Z,70.5
2023-03-17T20:31:28.247Z,70.5
2023-03-17T20:36:34.470Z,70.5
2023-03-17T20:41:40.643Z,71.0
2023-03-17T20:46:46.916Z,71.0
2023-03-17T20:51:53.054Z,71.0
2023-03-17T20:56:59.273Z,71.0
2023-03-17T21:02:05.540Z,71.5
2023-03-17T21:07:11.677Z,71.5
2023-03-17T21:12:17.889Z,71.5
2023-03-17T21:17:24.091Z,71.5
2023-03-17T21:22:30.312Z,71.5
2023-03-17T21:27:35.545Z,71.5
2023-03-17T21:32:41.860Z,72.0
2023-03-17T21:37:47.000Z,72.0
2023-03-17T21:42:53.212Z,72.0
2023-03-17T21:47:59.427Z,72.0
2023-03-17T21:53:05.625Z,72.0
2023-03-17T21:58:11.834Z,72.0
2023-03-17T22:03:18.092Z,72.5
2023-03-17T22:08:24.290Z,72.5
2023-03-17T22:13:30.475Z,72.5
2023-03-17T22:18:36.677Z,72.5
2023-03-17T22:23:42.878Z,73.0
2023-03-17T22:28:49.092Z,73.0
2023-03-17T22:33:55.445Z,73.0
2023-03-17T22:39:01.508Z,73.0
2023-03-17T22:44:07.728Z,73.5
2023-03-17T22:49:14.047Z,73.5
2023-03-17T22:54:20.135Z,73.5
2023-03-17T22:59:26.341Z,73.5
2023-03-17T23:04:32.549Z,74.0
2023-03-17T23:09:38.760Z,74.0
2023-03-17T23:14:45.013Z,74.0
2023-03-17T23:19:51.184Z,74.5
2023-03-17T23:24:56.411Z,75.0
2023-03-17T23:30:02.619Z,75.0
2023-03-17T23:35:08.853Z,75.5
2023-03-17T23:40:14.069Z,75.5
2023-03-17T23:45:20.274Z,76.0
2023-03-17T23:50:26.472Z,76.0
2023-03-17T23:55:32.682Z,76.5
